Cottage Hills, Illinois
Current Conditions -  °F | °C
As of 12:35 AM on Saturday 29 Nov 2014 (Local Time) from KALN Reporting Station
Clear Clear  
Wind Chill: 35°   Ceiling: Unl
Heat Index: 40°   Visibility: 10mi
Dew Point: 33°   Wind: 9mph
Humidity: 75%   Direction: 160°SSE
Pressure: 29.87"   Gusts: NA
Location:  38.9°N, 90.07°W
Report Text: KALN 290635Z AUTO 16008KT 10SM CLR 05/01 A2987 RMK AO2 T00470006
Loading
Personal Weather Stations






























Interactive Weather Map New forecast layout! Learn more

10-Day Weather Forecast

Advertisements
Track Severe Weather on mobile